Terminal Aerodrome Forecast
Issued by NWS

Home | Current Version | Previous Version | Text Only | Print | Product List | Glossary On
Versions: 1 2 3 4 5 6 7 8 9 10 11 12 13
000
FTUS42 KMHX 030500
TAFISO
TAF
KISO 030537Z 0306/0406 21005KT 6SM BR SCT050 SCT150
     FM031600 20007KT P6SM VCTS SCT045CB BKN090
     FM040100 20002KT 6SM BR SCT040 BKN100
      AMD LTD TO CLD VIS AND WIND=

USA.gov is the U.S. government's official web portal to all federal, state and local government web resources and services.